Soaring Guidance
Issued by NWS Reno, NV

Home | Current Version | Previous Version | Text Only | Print | Product List | Glossary On
Versions: 1 2 3 4 5 6 7
000
UXUS97 KREV 231346
SRGREV

SOARING FORECAST
NATIONAL WEATHER SERVICE - RENO NV
700 AM PDT SAT JUL 23 2016

THIS SOARING FORECAST IS FOR THE EASTERN SIERRA AND WESTERN NEVADA
WITH SPECIFIC INDICES FOR THE GREATER RENO AREA.

THIS FORECAST IS PREPARED DAILY BY 700 AM AND IS NOT UPDATED.

FOR CURRENT FLIGHT CONDITIONS...FORECASTS...AND ADVISORIES...ACCESS
YOUR LOCAL BRIEFING OUTLET OR FLIGHT SERVICE STATION.

*******************************************************************
FORECASTED LOCAL INDICES FOR RENO:        TODAY     YESTERDAY
FORECASTED MAX TEMP AT RENO (DEG F).....     97          94
FORECASTED TRIGGER TEMPERATURE (DEG F)..     79          78
   EXCEEDED YESTERDAY BY 1055 AM PDT
FORECASTED MAXIMUM ALTITUDE (FT MSL)....  15500       16600
FORECASTED SOARING INDEX (FPM)..........    855        1008
FORECASTED K-INDEX.........VALID 18Z....    -22         -10
FORECASTED K-INDEX.........VALID 00Z....    -11          -5
FORECASTED LIFTED INDEX....VALID 18Z....     13          10
FORECASTED LIFTED INDEX....VALID 00Z....      9           9

AFTERNOON WINDS ALOFT FORECAST
MSL (FT) WIND/TEMP
9000  3105/+18
10000 2905/+15
12000 2905/+09
14000 2707/+03
16000 2709/-02
18000 2716/-07
24000 2726/-19
30000 2643/-36
34000 2749/-45
39000 2652/-50

SLIDE MOUNTAIN DATA:
     DATE       TIME     TEMP  DEWPT   RH         WIND (MPH)
                        (F)   (F)           | DIR  SPEED GUST
2016-07-23    05:20      54    20      6    | 238    3    5
2016-07-23    05:00      54    20      6    | 227    4    6
2016-07-23    04:50      54    20      7    | 236    5    7
2016-07-23    04:30      54    20      7    | 238    5    7

RENO TAF FORECAST:
KRNO 231122Z 2312/2412 VRB03KT P6SM SKC
     FM232200 33009G16KT P6SM SKC
     FM240400 32006KT P6SM SKC

CARSON CITY TAF FORECAST:
KCXP 231122Z 2312/2412 VRB03KT P6SM SKC
     FM232100 30009G16KT P6SM SKC
     FM240300 31007KT P6SM SKC

OUTLOOK FOR THE RENO-CARSON CITY-MINDEN AREA:
.SUNDAY...SUNNY. HIGHS 97 TO 102. LIGHT WINDS BECOMING SOUTHEAST
UP TO 10 MPH IN THE AFTERNOON.

SUNRISE AND SUNSET
JULY 23 2016..........SUNRISE   551 AM PDT   SUNSET   819 PM PDT
JULY 24 2016..........SUNRISE   552 AM PDT   SUNSET   819 PM PDT



USA.gov is the U.S. government's official web portal to all federal, state and local government web resources and services.